Time;durP1;ratioP1;P1;durP2;ratioP2;P2;SDS_P1;SDS_P2;PMS_P1;PMS_P2;Temp;Humidity;BMP_temperature;BMP_pressure;BME280_temperature;BME280_humidity;BME280_pressure;Samples;Min_cycle;Max_cycle;Signal;HPM_P1;HPM_P2
2023/05/12 00:07:12;;;;;;;3.00;2.60;;;;;;;9.61;45.83;99916.11;436110;1251;138427;-63
2023/05/12 00:17:18;;;;;;;4.90;2.80;;;;;;;9.44;46.30;99920.53;436279;1251;138158;-63
2023/05/12 00:27:24;;;;;;;5.00;3.70;;;;;;;9.33;46.57;99918.86;436224;1251;139754;-63
2023/05/12 00:37:29;;;;;;;3.30;2.60;;;;;;;9.19;47.25;99917.64;436213;1250;139403;-63
2023/05/12 00:47:36;;;;;;;4.20;2.90;;;;;;;9.05;47.52;99910.69;436057;1251;141174;-62
2023/05/12 00:57:42;;;;;;;6.00;3.60;;;;;;;8.99;47.81;99914.89;436642;1250;139858;-64
2023/05/12 01:07:49;;;;;;;4.40;2.50;;;;;;;8.83;48.14;99920.02;436434;1253;140091;-63
2023/05/12 01:18:02;;;;;;;3.00;2.70;;;;;;;8.67;48.82;99929.91;437225;1254;138993;-63
2023/05/12 01:28:09;;;;;;;7.40;2.60;;;;;;;8.53;49.01;99926.09;436523;1253;138982;-63
2023/05/12 01:38:14;;;;;;;5.80;3.50;;;;;;;8.43;49.54;99931.79;436129;1250;138649;-63
2023/05/12 01:48:20;;;;;;;3.30;3.00;;;;;;;8.32;50.17;99935.65;436059;1254;138445;-63
2023/05/12 01:58:26;;;;;;;4.10;3.00;;;;;;;8.16;50.34;99941.79;436217;1254;138275;-63
2023/05/12 02:08:32;;;;;;;3.30;3.00;;;;;;;8.05;50.96;99945.83;436307;1251;139494;-63
2023/05/12 02:18:37;;;;;;;4.20;3.60;;;;;;;7.95;51.25;99945.23;436173;1254;139704;-64
2023/05/12 02:28:43;;;;;;;4.80;3.20;;;;;;;7.84;51.81;99948.38;436256;1251;139305;-63
2023/05/12 02:38:49;;;;;;;4.60;3.40;;;;;;;7.74;52.11;99952.86;436518;1254;138552;-64
2023/05/12 02:48:55;;;;;;;5.40;3.10;;;;;;;7.67;52.41;99957.67;437252;1254;138924;-66
2023/05/12 02:59:01;;;;;;;3.90;3.20;;;;;;;7.61;52.80;99958.64;436402;1251;138825;-63
2023/05/12 03:09:07;;;;;;;6.40;2.90;;;;;;;7.66;52.90;99958.11;436272;1254;139964;-64
2023/05/12 03:19:13;;;;;;;4.90;2.90;;;;;;;7.76;53.11;99953.12;436906;1251;138836;-63
2023/05/12 03:29:19;;;;;;;5.20;3.40;;;;;;;7.93;53.03;99951.95;436562;1250;139038;-64
2023/05/12 03:39:25;;;;;;;3.40;2.90;;;;;;;8.09;52.98;99950.52;436168;1251;139774;-63
2023/05/12 03:49:31;;;;;;;5.90;3.10;;;;;;;8.31;53.06;99958.55;436240;1254;138709;-62
2023/05/12 03:59:36;;;;;;;7.70;3.10;;;;;;;8.54;52.78;99956.55;436200;1250;138062;-62
2023/05/12 04:09:42;;;;;;;8.70;4.10;;;;;;;8.95;52.48;99966.40;436302;1251;140202;-63
2023/05/12 04:19:48;;;;;;;9.60;3.90;;;;;;;13.47;49.37;99961.45;436675;1252;138628;-63
2023/05/12 04:29:54;;;;;;;3.90;3.50;;;;;;;19.26;40.52;99964.30;436071;1251;139132;-64
2023/05/12 04:40:00;;;;;;;4.20;3.00;;;;;;;17.24;38.03;99977.24;436377;1255;140471;-63
2023/05/12 04:50:07;;;;;;;4.70;3.00;;;;;;;15.04;40.74;99982.08;436469;1254;139071;-65
2023/05/12 05:00:15;;;;;;;4.30;2.50;;;;;;;22.05;35.80;99971.88;436399;1251;138638;-64
2023/05/12 05:10:20;;;;;;;7.10;2.50;;;;;;;27.08;30.62;99973.06;436573;1251;141425;-63
2023/05/12 05:20:27;;;;;;;2.80;2.60;;;;;;;29.80;26.95;99972.05;436757;1254;137874;-62
2023/05/12 05:30:34;;;;;;;2.20;2.00;;;;;;;31.53;24.30;99974.07;436696;1254;138784;-63
2023/05/12 05:40:39;;;;;;;3.60;2.20;;;;;;;32.35;22.22;99973.20;436391;1254;139502;-62
2023/05/12 05:50:57;;;;;;;5.40;2.70;;;;;;;33.60;20.69;99971.94;435544;1251;139300;-62
2023/05/12 06:01:04;;;;;;;6.40;2.90;;;;;;;34.70;20.04;99974.89;435642;1251;138302;-62
2023/05/12 06:11:09;;;;;;;3.80;2.00;;;;;;;35.78;18.53;99977.45;439073;1254;139386;-62
2023/05/12 06:21:15;;;;;;;5.60;2.20;;;;;;;34.07;18.52;99974.61;436553;1254;139667;-62
2023/05/12 06:31:21;;;;;;;8.80;2.10;;;;;;;34.06;18.16;99975.98;436539;1251;138423;-63
2023/05/12 06:41:27;;;;;;;3.10;2.30;;;;;;;34.50;18.25;99985.06;436497;1251;138892;-62
2023/05/12 06:51:33;;;;;;;6.10;2.70;;;;;;;35.10;17.64;99987.86;436119;1251;139422;-62
2023/05/12 07:01:40;;;;;;;2.40;1.80;;;;;;;36.06;16.96;99988.11;436575;1250;138320;-62
2023/05/12 07:11:46;;;;;;;6.40;2.30;;;;;;;35.68;16.46;99987.10;436646;1254;176102;-62
2023/05/12 07:21:51;;;;;;;2.80;2.10;;;;;;;34.79;16.59;99990.05;436490;1251;139025;-62
2023/05/12 07:31:57;;;;;;;5.10;2.10;;;;;;;34.73;16.82;99979.47;436618;1255;139061;-62
2023/05/12 07:42:03;;;;;;;4.20;1.70;;;;;;;35.01;16.53;99976.75;436476;1250;139124;-62
2023/05/12 07:52:09;;;;;;;3.90;2.10;;;;;;;34.94;16.21;99967.02;436276;1250;139523;-62
2023/05/12 08:02:16;;;;;;;6.90;1.70;;;;;;;33.47;16.59;99978.54;436632;1254;138279;-62
2023/05/12 08:12:22;;;;;;;5.60;2.10;;;;;;;28.27;19.24;99979.89;436965;1254;139186;-63
2023/05/12 08:22:28;;;;;;;5.80;1.90;;;;;;;22.81;23.61;99987.82;436822;1252;138970;-64
2023/05/12 08:32:33;;;;;;;3.90;1.80;;;;;;;20.24;26.62;100000.53;436715;1255;139646;-64
2023/05/12 08:42:44;;;;;;;5.20;3.00;;;;;;;19.56;27.82;100000.13;436703;1251;139132;-63
2023/05/12 08:52:51;;;;;;;2.20;1.70;;;;;;;19.54;28.16;100007.95;437703;1251;139270;-62
2023/05/12 09:02:59;;;;;;;5.00;1.40;;;;;;;18.98;28.89;100022.15;437287;1251;139132;-63
2023/05/12 09:13:04;;;;;;;;;;;;;;;18.66;29.75;100014.59;437054;1251;138465;-62
2023/05/12 09:23:18;;;;;;;12.20;2.30;;;;;;;18.83;30.21;100012.50;436656;1251;126373;-61
2023/05/12 09:33:24;;;;;;;4.10;1.40;;;;;;;18.78;30.29;100013.18;436603;1250;138982;-62
2023/05/12 09:43:30;;;;;;;4.50;1.30;;;;;;;19.03;30.39;100011.40;436743;1255;139469;-64
2023/05/12 09:53:43;;;;;;;5.40;2.10;;;;;;;18.68;30.61;100006.09;437250;1256;138536;-63
2023/05/12 10:03:51;;;;;;;4.50;1.70;;;;;;;18.44;31.42;100021.86;437109;1251;140050;-63
2023/05/12 10:13:57;;;;;;;4.70;2.30;;;;;;;18.19;32.18;100010.70;437243;1251;139025;-62
2023/05/12 10:24:04;;;;;;;6.10;2.00;;;;;;;18.04;32.38;100013.41;436755;1255;140684;-64
2023/05/12 10:34:18;;;;;;;4.10;1.70;;;;;;;17.84;32.10;100007.83;436471;1251;140330;-63
2023/05/12 10:44:29;;;;;;;3.80;2.20;;;;;;;17.99;32.41;100000.52;436547;1255;138640;-62
2023/05/12 10:54:43;;;;;;;4.50;1.80;;;;;;;18.09;32.48;99995.10;436333;1256;140585;-62
2023/05/12 11:04:51;;;;;;;4.70;2.30;;;;;;;18.15;32.05;99997.60;436578;1255;139689;-62
2023/05/12 11:14:58;;;;;;;6.20;1.80;;;;;;;18.23;32.13;99988.02;436668;1254;139424;-62
2023/05/12 11:25:12;;;;;;;3.60;1.50;;;;;;;18.31;32.03;99993.63;436704;1256;139174;-62
2023/05/12 11:35:20;;;;;;;2.50;2.00;;;;;;;18.64;32.00;99988.68;436770;1254;139054;-64
2023/05/12 11:45:28;;;;;;;3.00;1.70;;;;;;;18.83;30.86;100008.45;436261;1251;139389;-62
2023/05/12 11:55:34;;;;;;;1.90;1.50;;;;;;;18.84;30.88;99995.81;437712;1256;140270;-61
2023/05/12 12:05:41;;;;;;;1.90;1.70;;;;;;;19.01;30.64;99998.69;436952;1251;140745;-63
2023/05/12 12:15:46;;;;;;;4.80;2.10;;;;;;;18.93;29.88;100003.52;436903;1254;139955;-64
2023/05/12 12:25:52;;;;;;;4.80;1.80;;;;;;;18.76;29.57;99985.72;436855;1254;138540;-63
2023/05/12 12:35:58;;;;;;;3.50;1.80;;;;;;;18.74;29.46;99997.56;436475;1251;140319;-63
2023/05/12 12:46:04;;;;;;;5.00;1.80;;;;;;;18.75;29.25;99988.63;436512;1255;140048;-63
2023/05/12 12:56:10;;;;;;;2.30;1.20;;;;;;;18.83;29.29;99984.67;440145;1255;138237;-62
2023/05/12 13:06:17;;;;;;;2.10;1.60;;;;;;;18.74;29.14;99988.71;436627;1254;138926;-62
2023/05/12 13:16:22;;;;;;;1.70;1.60;;;;;;;18.84;29.20;99979.15;436857;1254;138579;-63
2023/05/12 13:26:28;;;;;;;2.30;1.10;;;;;;;18.71;28.82;99983.52;436646;1251;138792;-62
2023/05/12 13:36:34;;;;;;;3.20;1.90;;;;;;;18.58;29.16;99979.31;436427;1255;138938;-62
2023/05/12 13:46:40;;;;;;;3.10;1.20;;;;;;;18.81;28.95;99969.27;436127;1251;139377;-62
2023/05/12 13:56:46;;;;;;;4.60;2.30;;;;;;;19.05;28.77;99972.21;436428;1255;138966;-62
2023/05/12 14:06:52;;;;;;;2.80;1.50;;;;;;;18.76;28.50;99983.52;436948;1254;139122;-63
2023/05/12 14:16:58;;;;;;;3.00;1.40;;;;;;;18.55;28.61;99971.60;436160;1251;139055;-62
2023/05/12 14:27:04;;;;;;;3.70;1.40;;;;;;;18.40;28.84;99970.34;436225;1254;140171;-64
2023/05/12 14:37:11;;;;;;;4.50;1.40;;;;;;;18.41;29.16;99971.30;436244;1251;140091;-62
2023/05/12 14:47:17;;;;;;;2.00;1.60;;;;;;;18.46;29.21;99963.38;435902;1252;139036;-62
2023/05/12 14:57:22;;;;;;;3.50;1.30;;;;;;;18.78;28.48;99968.33;436185;1251;139110;-63
2023/05/12 15:07:28;;;;;;;2.70;2.00;;;;;;;18.63;28.46;99967.70;436885;1251;138423;-62
2023/05/12 15:17:34;;;;;;;3.90;1.30;;;;;;;18.32;28.65;99969.79;436472;1254;139576;-62
2023/05/12 15:27:40;;;;;;;2.40;1.60;;;;;;;18.38;28.84;99967.88;436379;1251;139563;-63
2023/05/12 15:37:46;;;;;;;3.50;1.20;;;;;;;18.20;28.94;99965.25;436730;1254;138827;-62
2023/05/12 15:47:52;;;;;;;4.90;2.30;;;;;;;18.26;29.12;99956.75;436187;1251;139989;-62
2023/05/12 15:57:58;;;;;;;2.40;1.60;;;;;;;18.32;28.54;99965.03;436904;1251;140331;-63
2023/05/12 16:08:04;;;;;;;2.10;1.80;;;;;;;18.02;28.83;99963.09;436817;1254;139221;-62
2023/05/12 16:18:10;;;;;;;1.80;1.70;;;;;;;17.59;29.28;99970.02;436531;1251;139559;-63
2023/05/12 16:28:16;;;;;;;6.80;1.80;;;;;;;17.57;29.38;99971.98;436369;1254;139999;-63
2023/05/12 16:38:22;;;;;;;4.40;1.50;;;;;;;17.53;29.25;99973.55;436676;1251;139337;-64
2023/05/12 16:48:32;;;;;;;1.80;1.50;;;;;;;17.57;29.77;99973.95;436668;1251;139795;-64
2023/05/12 16:58:38;;;;;;;1.90;1.80;;;;;;;18.25;29.56;99977.87;437266;1251;139990;-64
2023/05/12 17:08:45;;;;;;;4.10;1.70;;;;;;;18.36;28.54;99987.69;437061;1254;138254;-63
2023/05/12 17:18:50;;;;;;;1.40;1.30;;;;;;;17.56;29.16;99997.36;436808;1254;139321;-62
2023/05/12 17:29:00;;;;;;;2.20;2.00;;;;;;;17.31;29.47;100005.34;436127;1254;138443;-63
2023/05/12 17:39:05;;;;;;;3.20;1.70;;;;;;;16.79;29.90;100011.25;436709;1251;139690;-61
2023/05/12 17:49:11;;;;;;;5.80;1.90;;;;;;;16.44;30.36;100017.32;436796;1254;140145;-65
2023/05/12 17:59:17;;;;;;;5.10;1.90;;;;;;;16.26;30.80;100024.75;436467;1251;139475;-62
2023/05/12 18:09:23;;;;;;;5.30;1.80;;;;;;;15.98;31.26;100028.73;436097;1254;139493;-64
2023/05/12 18:19:29;;;;;;;2.70;1.90;;;;;;;15.74;31.25;100032.20;436542;1251;139843;-67
2023/05/12 18:29:35;;;;;;;4.70;3.40;;;;;;;15.51;31.46;100043.52;436327;1251;139202;-64
2023/05/12 18:39:41;;;;;;;4.80;2.40;;;;;;;15.26;31.93;100053.52;436359;1254;139025;-65
2023/05/12 18:49:46;;;;;;;2.60;2.10;;;;;;;15.06;32.20;100063.98;435940;1254;139137;-63
2023/05/12 18:59:52;;;;;;;2.70;2.10;;;;;;;14.88;32.54;100070.21;435743;1251;139465;-62
2023/05/12 19:09:58;;;;;;;6.80;2.80;;;;;;;14.71;32.90;100073.62;437020;1254;139061;-63
2023/05/12 19:20:05;;;;;;;5.70;2.50;;;;;;;14.47;33.19;100073.54;435925;1250;139969;-62
2023/05/12 19:30:14;;;;;;;5.40;3.20;;;;;;;14.21;33.38;100077.53;436750;1251;139013;-63
2023/05/12 19:40:20;;;;;;;4.00;2.90;;;;;;;13.93;33.98;100084.42;437508;1250;139122;-63
2023/05/12 19:50:26;;;;;;;5.60;3.60;;;;;;;13.65;34.34;100091.98;437370;1250;140111;-63
2023/05/12 20:00:32;;;;;;;7.60;3.80;;;;;;;13.42;35.07;100098.26;436387;1254;140112;-64
2023/05/12 20:10:38;;;;;;;6.00;3.50;;;;;;;13.15;35.39;100096.19;436402;1251;140625;-63
2023/05/12 20:20:43;;;;;;;4.40;4.00;;;;;;;12.98;35.96;100100.45;436623;1254;138973;-63
2023/05/12 20:30:49;;;;;;;5.10;4.00;;;;;;;12.83;36.60;100108.61;436127;1251;138568;-62
2023/05/12 20:40:55;;;;;;;9.50;3.50;;;;;;;12.62;36.94;100106.44;436144;1251;139319;-63
2023/05/12 20:51:09;;;;;;;7.40;4.20;;;;;;;12.41;37.47;100106.91;436354;1254;139148;-64
2023/05/12 21:01:15;;;;;;;4.60;3.40;;;;;;;12.12;37.76;100107.10;436782;1250;139268;-62
2023/05/12 21:11:21;;;;;;;5.30;4.60;;;;;;;11.91;38.20;100114.84;437384;1251;139271;-62
2023/05/12 21:21:27;;;;;;;4.60;3.10;;;;;;;11.73;38.44;100114.70;436645;1250;138679;-62
2023/05/12 21:31:33;;;;;;;5.50;3.90;;;;;;;11.58;38.69;100124.57;436604;1251;137980;-64
2023/05/12 21:41:39;;;;;;;6.30;3.60;;;;;;;11.43;39.29;100125.39;436225;1250;139570;-63
2023/05/12 21:51:45;;;;;;;6.00;3.60;;;;;;;11.42;39.75;100133.02;437105;1250;140095;-62
2023/05/12 22:01:51;;;;;;;3.70;3.20;;;;;;;11.31;39.72;100139.46;436713;1250;138495;-62
2023/05/12 22:11:57;;;;;;;5.70;3.50;;;;;;;11.09;40.29;100143.13;436465;1250;138761;-63
2023/05/12 22:22:03;;;;;;;5.80;3.70;;;;;;;11.06;40.65;100142.44;436274;1254;141433;-63
2023/05/12 22:32:09;;;;;;;5.00;4.00;;;;;;;10.89;41.05;100147.26;436892;1251;139377;-62
2023/05/12 22:42:14;;;;;;;4.50;3.40;;;;;;;10.73;41.37;100150.77;436625;1251;139447;-62
2023/05/12 22:52:20;;;;;;;5.30;3.80;;;;;;;10.58;41.73;100148.45;436377;1253;140606;-63
2023/05/12 23:02:26;;;;;;;4.60;4.10;;;;;;;10.48;42.25;100146.56;436870;1251;140897;-64
2023/05/12 23:12:31;;;;;;;6.80;4.40;;;;;;;10.28;42.65;100142.30;436428;1250;139044;-62
2023/05/12 23:22:37;;;;;;;5.40;3.90;;;;;;;10.13;42.97;100145.60;436838;1250;140013;-63
2023/05/12 23:32:43;;;;;;;7.80;3.20;;;;;;;10.03;43.80;100145.23;436773;1251;138803;-62
2023/05/12 23:42:49;;;;;;;5.80;4.20;;;;;;;9.95;43.74;100139.55;436607;1254;139892;-62
2023/05/12 23:52:55;;;;;;;8.10;4.10;;;;;;;9.87;44.10;100135.20;436491;1254;140749;-66
